sensor_id;sensor_type;location;lat;lon;timestamp;P1;durP1;ratioP1;P2;durP2;ratioP2
12665;SDS011;58531;59.050;17.416;2023-09-30T00:02:20;17.03;;;11.87;;
12665;SDS011;58531;59.050;17.416;2023-09-30T00:04:47;18.37;;;11.87;;
12665;SDS011;58531;59.050;17.416;2023-09-30T00:07:13;14.80;;;11.73;;
12665;SDS011;58531;59.050;17.416;2023-09-30T00:09:40;15.23;;;11.20;;
12665;SDS011;58531;59.050;17.416;2023-09-30T00:12:09;13.87;;;10.33;;
12665;SDS011;58531;59.050;17.416;2023-09-30T00:14:35;14.00;;;10.40;;
12665;SDS011;58531;59.050;17.416;2023-09-30T00:17:02;12.43;;;10.10;;
12665;SDS011;58531;59.050;17.416;2023-09-30T00:19:29;11.03;;;9.63;;
12665;SDS011;58531;59.050;17.416;2023-09-30T00:21:58;14.70;;;8.83;;
12665;SDS011;58531;59.050;17.416;2023-09-30T00:24:26;9.63;;;8.60;;
12665;SDS011;58531;59.050;17.416;2023-09-30T00:26:53;13.57;;;8.90;;
12665;SDS011;58531;59.050;17.416;2023-09-30T00:29:21;9.37;;;7.50;;
12665;SDS011;58531;59.050;17.416;2023-09-30T00:31:48;8.80;;;7.03;;
12665;SDS011;58531;59.050;17.416;2023-09-30T00:34:14;8.33;;;6.87;;
12665;SDS011;58531;59.050;17.416;2023-09-30T00:36:41;8.87;;;7.20;;
12665;SDS011;58531;59.050;17.416;2023-09-30T00:39:08;8.33;;;6.50;;
12665;SDS011;58531;59.050;17.416;2023-09-30T00:41:35;13.77;;;6.80;;
12665;SDS011;58531;59.050;17.416;2023-09-30T00:44:02;8.73;;;6.40;;
12665;SDS011;58531;59.050;17.416;2023-09-30T00:46:30;6.57;;;5.97;;
12665;SDS011;58531;59.050;17.416;2023-09-30T00:48:59;7.27;;;5.87;;
12665;SDS011;58531;59.050;17.416;2023-09-30T00:51:26;5.90;;;5.30;;
12665;SDS011;58531;59.050;17.416;2023-09-30T00:53:54;4.90;;;4.40;;
12665;SDS011;58531;59.050;17.416;2023-09-30T00:56:24;5.93;;;3.80;;
12665;SDS011;58531;59.050;17.416;2023-09-30T00:58:53;4.63;;;3.33;;
12665;SDS011;58531;59.050;17.416;2023-09-30T01:01:20;6.00;;;3.23;;
12665;SDS011;58531;59.050;17.416;2023-09-30T01:03:49;8.10;;;3.20;;
12665;SDS011;58531;59.050;17.416;2023-09-30T01:06:15;6.60;;;3.70;;
12665;SDS011;58531;59.050;17.416;2023-09-30T01:08:42;6.20;;;3.50;;
12665;SDS011;58531;59.050;17.416;2023-09-30T01:11:09;7.53;;;3.27;;
12665;SDS011;58531;59.050;17.416;2023-09-30T01:13:37;4.30;;;3.30;;
12665;SDS011;58531;59.050;17.416;2023-09-30T01:16:04;9.13;;;3.53;;
12665;SDS011;58531;59.050;17.416;2023-09-30T01:18:31;5.90;;;3.00;;
12665;SDS011;58531;59.050;17.416;2023-09-30T01:21:00;6.60;;;3.73;;
12665;SDS011;58531;59.050;17.416;2023-09-30T01:23:31;8.20;;;3.70;;
12665;SDS011;58531;59.050;17.416;2023-09-30T01:26:00;6.60;;;3.53;;
12665;SDS011;58531;59.050;17.416;2023-09-30T01:28:28;5.37;;;3.57;;
12665;SDS011;58531;59.050;17.416;2023-09-30T01:30:55;8.03;;;3.00;;
12665;SDS011;58531;59.050;17.416;2023-09-30T01:33:22;6.67;;;3.10;;
12665;SDS011;58531;59.050;17.416;2023-09-30T01:35:49;6.80;;;2.83;;
12665;SDS011;58531;59.050;17.416;2023-09-30T01:38:16;7.70;;;3.53;;
12665;SDS011;58531;59.050;17.416;2023-09-30T01:40:44;7.13;;;3.03;;
12665;SDS011;58531;59.050;17.416;2023-09-30T01:43:11;3.87;;;3.03;;
12665;SDS011;58531;59.050;17.416;2023-09-30T01:45:39;7.70;;;3.40;;
12665;SDS011;58531;59.050;17.416;2023-09-30T01:48:06;7.33;;;3.20;;
12665;SDS011;58531;59.050;17.416;2023-09-30T01:50:36;7.60;;;3.27;;
12665;SDS011;58531;59.050;17.416;2023-09-30T01:53:03;8.50;;;3.33;;
12665;SDS011;58531;59.050;17.416;2023-09-30T01:55:30;8.00;;;3.93;;
12665;SDS011;58531;59.050;17.416;2023-09-30T01:57:58;6.70;;;3.70;;
12665;SDS011;58531;59.050;17.416;2023-09-30T02:00:25;7.30;;;3.27;;
12665;SDS011;58531;59.050;17.416;2023-09-30T02:02:53;5.60;;;3.10;;
12665;SDS011;58531;59.050;17.416;2023-09-30T02:05:20;8.33;;;4.03;;
12665;SDS011;58531;59.050;17.416;2023-09-30T02:07:47;6.73;;;4.20;;
12665;SDS011;58531;59.050;17.416;2023-09-30T02:10:15;7.37;;;3.93;;
12665;SDS011;58531;59.050;17.416;2023-09-30T02:12:45;11.13;;;4.23;;
12665;SDS011;58531;59.050;17.416;2023-09-30T02:15:13;8.87;;;4.13;;
12665;SDS011;58531;59.050;17.416;2023-09-30T02:17:41;11.33;;;4.20;;
12665;SDS011;58531;59.050;17.416;2023-09-30T02:20:11;9.47;;;3.83;;
12665;SDS011;58531;59.050;17.416;2023-09-30T02:22:44;6.93;;;3.50;;
12665;SDS011;58531;59.050;17.416;2023-09-30T02:25:12;8.93;;;4.00;;
12665;SDS011;58531;59.050;17.416;2023-09-30T02:27:40;9.90;;;4.10;;
12665;SDS011;58531;59.050;17.416;2023-09-30T02:30:09;9.10;;;3.90;;
12665;SDS011;58531;59.050;17.416;2023-09-30T02:32:38;6.03;;;3.60;;
12665;SDS011;58531;59.050;17.416;2023-09-30T02:35:06;9.87;;;3.87;;
12665;SDS011;58531;59.050;17.416;2023-09-30T02:37:36;8.70;;;3.93;;
12665;SDS011;58531;59.050;17.416;2023-09-30T02:40:03;8.80;;;3.70;;
12665;SDS011;58531;59.050;17.416;2023-09-30T02:42:34;8.33;;;3.93;;
12665;SDS011;58531;59.050;17.416;2023-09-30T02:45:03;8.97;;;3.53;;
12665;SDS011;58531;59.050;17.416;2023-09-30T02:47:30;7.77;;;3.47;;
12665;SDS011;58531;59.050;17.416;2023-09-30T02:49:58;7.97;;;3.30;;
12665;SDS011;58531;59.050;17.416;2023-09-30T02:52:25;11.27;;;4.10;;
12665;SDS011;58531;59.050;17.416;2023-09-30T02:54:52;10.83;;;4.03;;
12665;SDS011;58531;59.050;17.416;2023-09-30T02:57:19;10.50;;;3.87;;
12665;SDS011;58531;59.050;17.416;2023-09-30T02:59:46;7.53;;;3.87;;
12665;SDS011;58531;59.050;17.416;2023-09-30T03:02:13;10.90;;;4.30;;
12665;SDS011;58531;59.050;17.416;2023-09-30T03:04:43;10.53;;;4.80;;
12665;SDS011;58531;59.050;17.416;2023-09-30T03:07:12;12.70;;;4.63;;
12665;SDS011;58531;59.050;17.416;2023-09-30T03:09:40;11.40;;;4.50;;
12665;SDS011;58531;59.050;17.416;2023-09-30T03:12:07;11.40;;;4.50;;
12665;SDS011;58531;59.050;17.416;2023-09-30T03:14:34;13.50;;;4.40;;
12665;SDS011;58531;59.050;17.416;2023-09-30T03:17:01;16.40;;;5.00;;
12665;SDS011;58531;59.050;17.416;2023-09-30T03:19:28;10.77;;;4.43;;
12665;SDS011;58531;59.050;17.416;2023-09-30T03:21:55;10.97;;;4.90;;
12665;SDS011;58531;59.050;17.416;2023-09-30T03:24:24;11.07;;;4.20;;
12665;SDS011;58531;59.050;17.416;2023-09-30T03:26:52;10.97;;;4.80;;
12665;SDS011;58531;59.050;17.416;2023-09-30T03:29:19;10.57;;;4.43;;
12665;SDS011;58531;59.050;17.416;2023-09-30T03:31:46;15.80;;;4.83;;
12665;SDS011;58531;59.050;17.416;2023-09-30T03:34:12;13.53;;;5.17;;
12665;SDS011;58531;59.050;17.416;2023-09-30T03:36:41;12.00;;;5.20;;
12665;SDS011;58531;59.050;17.416;2023-09-30T03:39:08;11.13;;;4.80;;
12665;SDS011;58531;59.050;17.416;2023-09-30T03:41:41;12.80;;;4.80;;
12665;SDS011;58531;59.050;17.416;2023-09-30T03:44:08;13.77;;;4.83;;
12665;SDS011;58531;59.050;17.416;2023-09-30T03:46:35;14.13;;;5.10;;
12665;SDS011;58531;59.050;17.416;2023-09-30T03:49:02;12.13;;;4.80;;
12665;SDS011;58531;59.050;17.416;2023-09-30T03:51:29;12.50;;;4.80;;
12665;SDS011;58531;59.050;17.416;2023-09-30T03:53:55;14.57;;;6.07;;
12665;SDS011;58531;59.050;17.416;2023-09-30T03:56:22;11.27;;;5.33;;
12665;SDS011;58531;59.050;17.416;2023-09-30T03:58:50;12.93;;;5.57;;
12665;SDS011;58531;59.050;17.416;2023-09-30T04:01:17;14.40;;;5.10;;
12665;SDS011;58531;59.050;17.416;2023-09-30T04:03:45;14.33;;;5.00;;
12665;SDS011;58531;59.050;17.416;2023-09-30T04:06:12;12.40;;;5.60;;
12665;SDS011;58531;59.050;17.416;2023-09-30T04:08:39;15.20;;;5.70;;
12665;SDS011;58531;59.050;17.416;2023-09-30T04:11:08;12.23;;;5.23;;
12665;SDS011;58531;59.050;17.416;2023-09-30T04:13:35;13.93;;;5.13;;
12665;SDS011;58531;59.050;17.416;2023-09-30T04:16:03;15.00;;;4.93;;
12665;SDS011;58531;59.050;17.416;2023-09-30T04:18:30;13.10;;;4.63;;
12665;SDS011;58531;59.050;17.416;2023-09-30T04:20:57;12.40;;;4.53;;
12665;SDS011;58531;59.050;17.416;2023-09-30T04:23:24;16.13;;;5.07;;
12665;SDS011;58531;59.050;17.416;2023-09-30T04:25:52;12.43;;;4.40;;
12665;SDS011;58531;59.050;17.416;2023-09-30T04:28:19;14.87;;;5.30;;
12665;SDS011;58531;59.050;17.416;2023-09-30T04:30:46;16.73;;;5.90;;
12665;SDS011;58531;59.050;17.416;2023-09-30T04:33:16;12.63;;;4.57;;
12665;SDS011;58531;59.050;17.416;2023-09-30T04:35:44;12.17;;;4.73;;
12665;SDS011;58531;59.050;17.416;2023-09-30T04:38:11;14.47;;;5.50;;
12665;SDS011;58531;59.050;17.416;2023-09-30T04:40:38;14.40;;;4.63;;
12665;SDS011;58531;59.050;17.416;2023-09-30T04:43:05;13.53;;;4.73;;
12665;SDS011;58531;59.050;17.416;2023-09-30T04:45:32;16.13;;;4.40;;
12665;SDS011;58531;59.050;17.416;2023-09-30T04:47:58;10.23;;;4.20;;
12665;SDS011;58531;59.050;17.416;2023-09-30T04:50:28;12.53;;;4.53;;
12665;SDS011;58531;59.050;17.416;2023-09-30T04:52:55;12.67;;;4.27;;
12665;SDS011;58531;59.050;17.416;2023-09-30T04:55:23;10.67;;;4.13;;
12665;SDS011;58531;59.050;17.416;2023-09-30T04:57:50;16.17;;;4.30;;
12665;SDS011;58531;59.050;17.416;2023-09-30T05:00:17;13.23;;;4.60;;
12665;SDS011;58531;59.050;17.416;2023-09-30T05:02:50;11.97;;;4.30;;
12665;SDS011;58531;59.050;17.416;2023-09-30T05:05:17;12.40;;;4.13;;
12665;SDS011;58531;59.050;17.416;2023-09-30T05:07:46;12.47;;;4.10;;
12665;SDS011;58531;59.050;17.416;2023-09-30T05:10:13;10.63;;;3.93;;
12665;SDS011;58531;59.050;17.416;2023-09-30T05:12:41;11.23;;;4.23;;
12665;SDS011;58531;59.050;17.416;2023-09-30T05:15:10;11.40;;;3.60;;
12665;SDS011;58531;59.050;17.416;2023-09-30T05:17:38;10.20;;;3.57;;
12665;SDS011;58531;59.050;17.416;2023-09-30T05:20:05;10.53;;;3.70;;
12665;SDS011;58531;59.050;17.416;2023-09-30T05:22:32;11.23;;;4.10;;
12665;SDS011;58531;59.050;17.416;2023-09-30T05:25:01;11.30;;;3.87;;
12665;SDS011;58531;59.050;17.416;2023-09-30T05:27:28;12.10;;;3.90;;
12665;SDS011;58531;59.050;17.416;2023-09-30T05:29:54;9.10;;;3.20;;
12665;SDS011;58531;59.050;17.416;2023-09-30T05:32:21;12.17;;;4.20;;
12665;SDS011;58531;59.050;17.416;2023-09-30T05:34:48;12.73;;;4.10;;
12665;SDS011;58531;59.050;17.416;2023-09-30T05:37:15;13.23;;;3.77;;
12665;SDS011;58531;59.050;17.416;2023-09-30T05:39:42;11.87;;;3.93;;
12665;SDS011;58531;59.050;17.416;2023-09-30T05:42:11;11.60;;;3.67;;
12665;SDS011;58531;59.050;17.416;2023-09-30T05:44:38;9.87;;;3.00;;
12665;SDS011;58531;59.050;17.416;2023-09-30T05:47:04;9.30;;;3.13;;
12665;SDS011;58531;59.050;17.416;2023-09-30T05:49:31;11.93;;;3.37;;
12665;SDS011;58531;59.050;17.416;2023-09-30T05:51:58;11.63;;;3.30;;
12665;SDS011;58531;59.050;17.416;2023-09-30T05:54:25;8.93;;;3.00;;
12665;SDS011;58531;59.050;17.416;2023-09-30T05:56:52;11.80;;;3.87;;
12665;SDS011;58531;59.050;17.416;2023-09-30T05:59:20;9.77;;;3.20;;
12665;SDS011;58531;59.050;17.416;2023-09-30T06:01:47;9.53;;;3.10;;
12665;SDS011;58531;59.050;17.416;2023-09-30T06:04:14;15.80;;;3.37;;
12665;SDS011;58531;59.050;17.416;2023-09-30T06:06:41;7.73;;;2.83;;
12665;SDS011;58531;59.050;17.416;2023-09-30T06:09:08;10.00;;;2.80;;
12665;SDS011;58531;59.050;17.416;2023-09-30T06:11:36;10.10;;;3.47;;
12665;SDS011;58531;59.050;17.416;2023-09-30T06:14:03;10.67;;;3.07;;
12665;SDS011;58531;59.050;17.416;2023-09-30T06:16:33;12.87;;;3.70;;
12665;SDS011;58531;59.050;17.416;2023-09-30T06:18:59;9.90;;;2.80;;
12665;SDS011;58531;59.050;17.416;2023-09-30T06:21:26;12.43;;;3.30;;
12665;SDS011;58531;59.050;17.416;2023-09-30T06:23:54;12.27;;;3.00;;
12665;SDS011;58531;59.050;17.416;2023-09-30T06:26:21;11.33;;;2.97;;
12665;SDS011;58531;59.050;17.416;2023-09-30T06:28:50;11.77;;;2.70;;
12665;SDS011;58531;59.050;17.416;2023-09-30T06:31:19;5.57;;;2.40;;
12665;SDS011;58531;59.050;17.416;2023-09-30T06:33:47;10.40;;;2.77;;
12665;SDS011;58531;59.050;17.416;2023-09-30T06:36:14;9.67;;;3.13;;
12665;SDS011;58531;59.050;17.416;2023-09-30T06:38:41;12.97;;;2.60;;
12665;SDS011;58531;59.050;17.416;2023-09-30T06:41:08;8.97;;;2.83;;
12665;SDS011;58531;59.050;17.416;2023-09-30T06:43:35;9.77;;;3.40;;
12665;SDS011;58531;59.050;17.416;2023-09-30T06:46:05;8.97;;;2.70;;
12665;SDS011;58531;59.050;17.416;2023-09-30T06:48:34;8.73;;;2.77;;
12665;SDS011;58531;59.050;17.416;2023-09-30T06:51:02;10.03;;;3.40;;
12665;SDS011;58531;59.050;17.416;2023-09-30T06:53:29;9.73;;;2.87;;
12665;SDS011;58531;59.050;17.416;2023-09-30T06:55:56;10.50;;;3.20;;
12665;SDS011;58531;59.050;17.416;2023-09-30T06:58:23;7.53;;;2.80;;
12665;SDS011;58531;59.050;17.416;2023-09-30T07:00:50;9.30;;;2.70;;
12665;SDS011;58531;59.050;17.416;2023-09-30T07:03:18;9.73;;;2.90;;
12665;SDS011;58531;59.050;17.416;2023-09-30T07:05:45;10.20;;;3.40;;
12665;SDS011;58531;59.050;17.416;2023-09-30T07:08:16;8.37;;;3.00;;
12665;SDS011;58531;59.050;17.416;2023-09-30T07:10:43;9.80;;;2.77;;
12665;SDS011;58531;59.050;17.416;2023-09-30T07:13:11;8.33;;;2.73;;
12665;SDS011;58531;59.050;17.416;2023-09-30T07:15:38;7.60;;;2.83;;
12665;SDS011;58531;59.050;17.416;2023-09-30T07:18:04;8.33;;;2.73;;
12665;SDS011;58531;59.050;17.416;2023-09-30T07:20:31;6.80;;;2.83;;
12665;SDS011;58531;59.050;17.416;2023-09-30T07:22:58;9.93;;;3.43;;
12665;SDS011;58531;59.050;17.416;2023-09-30T07:25:27;11.17;;;3.07;;
12665;SDS011;58531;59.050;17.416;2023-09-30T07:27:57;9.57;;;2.97;;
12665;SDS011;58531;59.050;17.416;2023-09-30T07:30:26;7.43;;;2.73;;
12665;SDS011;58531;59.050;17.416;2023-09-30T07:32:52;12.13;;;2.80;;
12665;SDS011;58531;59.050;17.416;2023-09-30T07:35:19;8.37;;;3.20;;
12665;SDS011;58531;59.050;17.416;2023-09-30T07:37:46;9.63;;;3.17;;
12665;SDS011;58531;59.050;17.416;2023-09-30T07:40:16;10.00;;;3.20;;
12665;SDS011;58531;59.050;17.416;2023-09-30T07:42:45;11.13;;;3.20;;
12665;SDS011;58531;59.050;17.416;2023-09-30T07:45:11;10.63;;;3.33;;
12665;SDS011;58531;59.050;17.416;2023-09-30T07:47:42;9.97;;;3.33;;
12665;SDS011;58531;59.050;17.416;2023-09-30T07:50:11;7.40;;;3.00;;
12665;SDS011;58531;59.050;17.416;2023-09-30T07:52:38;8.87;;;2.77;;
12665;SDS011;58531;59.050;17.416;2023-09-30T07:55:06;9.13;;;3.20;;
12665;SDS011;58531;59.050;17.416;2023-09-30T07:57:34;10.80;;;3.33;;
12665;SDS011;58531;59.050;17.416;2023-09-30T08:00:02;8.40;;;3.00;;
12665;SDS011;58531;59.050;17.416;2023-09-30T08:02:33;6.97;;;2.80;;
12665;SDS011;58531;59.050;17.416;2023-09-30T08:04:59;8.87;;;3.00;;
12665;SDS011;58531;59.050;17.416;2023-09-30T08:07:26;9.30;;;2.50;;
12665;SDS011;58531;59.050;17.416;2023-09-30T08:09:53;8.60;;;3.03;;
12665;SDS011;58531;59.050;17.416;2023-09-30T08:12:20;10.67;;;3.10;;
12665;SDS011;58531;59.050;17.416;2023-09-30T08:14:47;10.37;;;3.13;;
12665;SDS011;58531;59.050;17.416;2023-09-30T08:17:15;9.60;;;3.43;;
12665;SDS011;58531;59.050;17.416;2023-09-30T08:19:42;6.37;;;2.67;;
12665;SDS011;58531;59.050;17.416;2023-09-30T08:22:09;8.60;;;2.93;;
12665;SDS011;58531;59.050;17.416;2023-09-30T08:24:36;8.43;;;2.57;;
12665;SDS011;58531;59.050;17.416;2023-09-30T08:27:03;8.90;;;3.20;;
12665;SDS011;58531;59.050;17.416;2023-09-30T08:29:33;12.20;;;2.97;;
12665;SDS011;58531;59.050;17.416;2023-09-30T08:32:01;7.00;;;2.17;;
12665;SDS011;58531;59.050;17.416;2023-09-30T08:34:30;9.43;;;2.70;;
12665;SDS011;58531;59.050;17.416;2023-09-30T08:36:56;8.80;;;2.83;;
12665;SDS011;58531;59.050;17.416;2023-09-30T08:39:23;9.43;;;2.80;;
12665;SDS011;58531;59.050;17.416;2023-09-30T08:41:50;10.93;;;3.23;;
12665;SDS011;58531;59.050;17.416;2023-09-30T08:44:18;8.23;;;2.83;;
12665;SDS011;58531;59.050;17.416;2023-09-30T08:46:45;6.83;;;2.83;;
12665;SDS011;58531;59.050;17.416;2023-09-30T08:49:13;6.80;;;2.40;;
12665;SDS011;58531;59.050;17.416;2023-09-30T08:51:43;12.10;;;3.63;;
12665;SDS011;58531;59.050;17.416;2023-09-30T08:54:10;10.43;;;3.03;;
12665;SDS011;58531;59.050;17.416;2023-09-30T08:56:37;10.43;;;2.93;;
12665;SDS011;58531;59.050;17.416;2023-09-30T08:59:11;12.97;;;3.23;;
12665;SDS011;58531;59.050;17.416;2023-09-30T09:01:39;10.30;;;3.33;;
12665;SDS011;58531;59.050;17.416;2023-09-30T09:04:06;11.30;;;3.43;;
12665;SDS011;58531;59.050;17.416;2023-09-30T09:06:33;10.03;;;2.87;;
12665;SDS011;58531;59.050;17.416;2023-09-30T09:09:14;8.27;;;2.80;;
12665;SDS011;58531;59.050;17.416;2023-09-30T09:11:42;10.80;;;3.27;;
12665;SDS011;58531;59.050;17.416;2023-09-30T09:14:09;9.03;;;3.17;;
12665;SDS011;58531;59.050;17.416;2023-09-30T09:16:36;11.40;;;2.90;;
12665;SDS011;58531;59.050;17.416;2023-09-30T09:19:12;10.37;;;2.93;;
12665;SDS011;58531;59.050;17.416;2023-09-30T09:21:45;9.43;;;2.80;;
12665;SDS011;58531;59.050;17.416;2023-09-30T09:24:27;8.57;;;2.23;;
12665;SDS011;58531;59.050;17.416;2023-09-30T09:27:03;10.77;;;3.10;;
12665;SDS011;58531;59.050;17.416;2023-09-30T09:29:30;9.53;;;3.67;;
12665;SDS011;58531;59.050;17.416;2023-09-30T09:32:06;11.10;;;3.07;;
12665;SDS011;58531;59.050;17.416;2023-09-30T09:34:33;8.60;;;2.60;;
12665;SDS011;58531;59.050;17.416;2023-09-30T09:37:00;7.27;;;2.77;;
12665;SDS011;58531;59.050;17.416;2023-09-30T09:39:40;10.03;;;2.97;;
12665;SDS011;58531;59.050;17.416;2023-09-30T09:42:23;11.47;;;3.00;;
12665;SDS011;58531;59.050;17.416;2023-09-30T09:44:51;8.10;;;2.50;;
12665;SDS011;58531;59.050;17.416;2023-09-30T09:47:21;7.47;;;2.67;;
12665;SDS011;58531;59.050;17.416;2023-09-30T09:49:48;16.53;;;3.07;;
12665;SDS011;58531;59.050;17.416;2023-09-30T09:52:16;10.27;;;2.80;;
12665;SDS011;58531;59.050;17.416;2023-09-30T09:54:45;10.40;;;2.97;;
12665;SDS011;58531;59.050;17.416;2023-09-30T09:57:13;7.40;;;2.73;;
12665;SDS011;58531;59.050;17.416;2023-09-30T09:59:42;9.43;;;2.70;;
12665;SDS011;58531;59.050;17.416;2023-09-30T10:02:12;10.70;;;2.70;;
12665;SDS011;58531;59.050;17.416;2023-09-30T10:04:40;9.53;;;2.77;;
12665;SDS011;58531;59.050;17.416;2023-09-30T10:07:09;10.40;;;2.50;;
12665;SDS011;58531;59.050;17.416;2023-09-30T10:09:40;6.67;;;2.50;;
12665;SDS011;58531;59.050;17.416;2023-09-30T10:12:12;8.83;;;2.40;;
12665;SDS011;58531;59.050;17.416;2023-09-30T10:14:40;10.73;;;3.13;;
12665;SDS011;58531;59.050;17.416;2023-09-30T10:17:07;8.20;;;2.70;;
12665;SDS011;58531;59.050;17.416;2023-09-30T10:19:34;6.50;;;2.20;;
12665;SDS011;58531;59.050;17.416;2023-09-30T10:22:20;7.73;;;2.33;;
12665;SDS011;58531;59.050;17.416;2023-09-30T10:24:48;8.20;;;1.97;;
12665;SDS011;58531;59.050;17.416;2023-09-30T10:27:35;7.07;;;2.10;;
12665;SDS011;58531;59.050;17.416;2023-09-30T10:30:05;4.63;;;1.83;;
12665;SDS011;58531;59.050;17.416;2023-09-30T10:35:47;8.83;;;2.60;;
12665;SDS011;58531;59.050;17.416;2023-09-30T10:41:13;7.27;;;2.03;;
12665;SDS011;58531;59.050;17.416;2023-09-30T10:44:35;4.27;;;1.20;;
12665;SDS011;58531;59.050;17.416;2023-09-30T10:50:02;4.40;;;1.47;;
12665;SDS011;58531;59.050;17.416;2023-09-30T10:52:30;6.33;;;1.87;;
12665;SDS011;58531;59.050;17.416;2023-09-30T10:55:01;6.40;;;1.67;;
12665;SDS011;58531;59.050;17.416;2023-09-30T10:57:29;4.57;;;1.73;;
12665;SDS011;58531;59.050;17.416;2023-09-30T11:00:11;4.07;;;1.10;;
12665;SDS011;58531;59.050;17.416;2023-09-30T11:02:47;7.10;;;1.90;;
12665;SDS011;58531;59.050;17.416;2023-09-30T11:05:16;5.70;;;1.63;;
12665;SDS011;58531;59.050;17.416;2023-09-30T11:07:43;5.03;;;1.10;;
12665;SDS011;58531;59.050;17.416;2023-09-30T11:10:15;10.20;;;1.73;;
12665;SDS011;58531;59.050;17.416;2023-09-30T11:12:53;5.87;;;1.60;;
12665;SDS011;58531;59.050;17.416;2023-09-30T11:15:21;4.90;;;1.40;;
12665;SDS011;58531;59.050;17.416;2023-09-30T11:17:48;4.73;;;1.30;;
12665;SDS011;58531;59.050;17.416;2023-09-30T11:20:15;7.73;;;1.70;;
12665;SDS011;58531;59.050;17.416;2023-09-30T11:22:43;3.33;;;1.50;;
12665;SDS011;58531;59.050;17.416;2023-09-30T11:25:14;4.10;;;1.37;;
12665;SDS011;58531;59.050;17.416;2023-09-30T11:27:42;5.33;;;1.77;;
12665;SDS011;58531;59.050;17.416;2023-09-30T11:30:10;5.37;;;1.83;;
12665;SDS011;58531;59.050;17.416;2023-09-30T11:32:39;5.90;;;1.67;;
12665;SDS011;58531;59.050;17.416;2023-09-30T11:35:10;7.87;;;1.70;;
12665;SDS011;58531;59.050;17.416;2023-09-30T11:37:48;3.13;;;1.10;;
12665;SDS011;58531;59.050;17.416;2023-09-30T11:40:17;3.80;;;1.27;;
12665;SDS011;58531;59.050;17.416;2023-09-30T11:45:33;3.73;;;1.40;;
12665;SDS011;58531;59.050;17.416;2023-09-30T11:48:01;5.10;;;1.50;;
12665;SDS011;58531;59.050;17.416;2023-09-30T11:50:44;4.57;;;1.20;;
12665;SDS011;58531;59.050;17.416;2023-09-30T11:53:15;2.93;;;1.00;;
12665;SDS011;58531;59.050;17.416;2023-09-30T11:55:43;2.80;;;1.10;;
12665;SDS011;58531;59.050;17.416;2023-09-30T11:58:11;4.33;;;1.20;;
12665;SDS011;58531;59.050;17.416;2023-09-30T12:00:43;1.90;;;1.00;;
12665;SDS011;58531;59.050;17.416;2023-09-30T12:03:12;4.33;;;1.23;;
12665;SDS011;58531;59.050;17.416;2023-09-30T12:05:38;5.77;;;1.70;;
12665;SDS011;58531;59.050;17.416;2023-09-30T12:08:05;4.70;;;1.53;;
12665;SDS011;58531;59.050;17.416;2023-09-30T12:10:33;3.93;;;1.20;;
12665;SDS011;58531;59.050;17.416;2023-09-30T12:12:59;4.20;;;1.30;;
12665;SDS011;58531;59.050;17.416;2023-09-30T12:15:26;5.03;;;1.20;;
12665;SDS011;58531;59.050;17.416;2023-09-30T12:17:53;2.20;;;1.23;;
12665;SDS011;58531;59.050;17.416;2023-09-30T12:20:22;3.67;;;1.30;;
12665;SDS011;58531;59.050;17.416;2023-09-30T12:22:50;4.97;;;1.37;;
12665;SDS011;58531;59.050;17.416;2023-09-30T12:25:19;4.27;;;1.37;;
12665;SDS011;58531;59.050;17.416;2023-09-30T12:27:47;3.60;;;1.40;;
12665;SDS011;58531;59.050;17.416;2023-09-30T12:30:14;2.37;;;0.80;;
12665;SDS011;58531;59.050;17.416;2023-09-30T12:32:42;3.80;;;1.10;;
12665;SDS011;58531;59.050;17.416;2023-09-30T12:35:08;5.97;;;1.30;;
12665;SDS011;58531;59.050;17.416;2023-09-30T12:37:37;3.20;;;1.00;;
12665;SDS011;58531;59.050;17.416;2023-09-30T12:40:04;3.10;;;1.20;;
12665;SDS011;58531;59.050;17.416;2023-09-30T12:42:33;2.23;;;1.13;;
12665;SDS011;58531;59.050;17.416;2023-09-30T12:45:00;4.90;;;1.20;;
12665;SDS011;58531;59.050;17.416;2023-09-30T12:47:28;5.80;;;1.17;;
12665;SDS011;58531;59.050;17.416;2023-09-30T12:49:55;3.33;;;1.83;;
12665;SDS011;58531;59.050;17.416;2023-09-30T12:52:22;2.80;;;1.03;;
12665;SDS011;58531;59.050;17.416;2023-09-30T12:54:52;2.97;;;1.27;;
12665;SDS011;58531;59.050;17.416;2023-09-30T12:57:19;3.20;;;1.20;;
12665;SDS011;58531;59.050;17.416;2023-09-30T12:59:46;4.53;;;1.30;;
12665;SDS011;58531;59.050;17.416;2023-09-30T13:02:14;3.77;;;1.17;;
12665;SDS011;58531;59.050;17.416;2023-09-30T13:04:43;5.37;;;1.10;;
12665;SDS011;58531;59.050;17.416;2023-09-30T13:07:10;4.17;;;1.07;;
12665;SDS011;58531;59.050;17.416;2023-09-30T13:09:37;3.37;;;1.20;;
12665;SDS011;58531;59.050;17.416;2023-09-30T13:12:06;4.77;;;1.10;;
12665;SDS011;58531;59.050;17.416;2023-09-30T13:14:33;3.23;;;0.97;;
12665;SDS011;58531;59.050;17.416;2023-09-30T13:17:00;6.70;;;1.50;;
12665;SDS011;58531;59.050;17.416;2023-09-30T13:19:28;3.73;;;1.23;;
12665;SDS011;58531;59.050;17.416;2023-09-30T13:21:58;7.10;;;1.27;;
12665;SDS011;58531;59.050;17.416;2023-09-30T13:24:25;4.63;;;1.20;;
12665;SDS011;58531;59.050;17.416;2023-09-30T13:26:52;5.13;;;1.40;;
12665;SDS011;58531;59.050;17.416;2023-09-30T13:29:20;2.70;;;0.90;;
12665;SDS011;58531;59.050;17.416;2023-09-30T13:31:47;3.30;;;1.07;;
12665;SDS011;58531;59.050;17.416;2023-09-30T13:34:14;6.03;;;1.23;;
12665;SDS011;58531;59.050;17.416;2023-09-30T13:36:41;3.50;;;1.00;;
12665;SDS011;58531;59.050;17.416;2023-09-30T13:39:08;1.10;;;0.80;;
12665;SDS011;58531;59.050;17.416;2023-09-30T13:41:38;4.50;;;1.20;;
12665;SDS011;58531;59.050;17.416;2023-09-30T13:44:05;2.83;;;1.17;;
12665;SDS011;58531;59.050;17.416;2023-09-30T13:46:34;4.53;;;1.10;;
12665;SDS011;58531;59.050;17.416;2023-09-30T13:49:01;2.43;;;0.80;;
12665;SDS011;58531;59.050;17.416;2023-09-30T13:51:29;3.60;;;1.03;;
12665;SDS011;58531;59.050;17.416;2023-09-30T13:53:56;3.20;;;1.10;;
12665;SDS011;58531;59.050;17.416;2023-09-30T13:56:22;3.27;;;0.80;;
12665;SDS011;58531;59.050;17.416;2023-09-30T13:58:49;1.47;;;0.93;;
12665;SDS011;58531;59.050;17.416;2023-09-30T14:01:17;3.17;;;1.23;;
12665;SDS011;58531;59.050;17.416;2023-09-30T14:03:46;3.40;;;1.10;;
12665;SDS011;58531;59.050;17.416;2023-09-30T14:06:13;4.63;;;1.03;;
12665;SDS011;58531;59.050;17.416;2023-09-30T14:08:40;2.43;;;1.10;;
12665;SDS011;58531;59.050;17.416;2023-09-30T14:11:08;3.60;;;1.30;;
12665;SDS011;58531;59.050;17.416;2023-09-30T14:13:36;2.20;;;1.20;;
12665;SDS011;58531;59.050;17.416;2023-09-30T14:16:04;3.47;;;1.17;;
12665;SDS011;58531;59.050;17.416;2023-09-30T14:18:31;4.70;;;1.00;;
12665;SDS011;58531;59.050;17.416;2023-09-30T14:20:59;2.53;;;0.97;;
12665;SDS011;58531;59.050;17.416;2023-09-30T14:23:26;3.00;;;1.00;;
12665;SDS011;58531;59.050;17.416;2023-09-30T14:25:54;5.90;;;1.47;;
12665;SDS011;58531;59.050;17.416;2023-09-30T14:28:21;2.80;;;1.07;;
12665;SDS011;58531;59.050;17.416;2023-09-30T14:30:47;4.07;;;1.00;;
12665;SDS011;58531;59.050;17.416;2023-09-30T14:33:15;2.90;;;1.00;;
12665;SDS011;58531;59.050;17.416;2023-09-30T14:35:44;4.77;;;1.43;;
12665;SDS011;58531;59.050;17.416;2023-09-30T14:38:13;1.97;;;0.80;;
12665;SDS011;58531;59.050;17.416;2023-09-30T14:40:40;3.27;;;1.10;;
12665;SDS011;58531;59.050;17.416;2023-09-30T14:43:07;5.73;;;1.40;;
12665;SDS011;58531;59.050;17.416;2023-09-30T14:45:36;1.80;;;1.00;;
12665;SDS011;58531;59.050;17.416;2023-09-30T14:48:04;2.40;;;1.13;;